Keller, WA (99140)

4:31 AM PDT on October 31, 2014 (GMT -0700)
RAWS NESPELEM WA US | Change Station
CLOSE
Current Station
Personal Weather Station
Location: Elmer City, WA
Elevation: 1899 ft
Nearby Weather Stations

Elev 1899 ft 48.14 °N, 118.97 °W | Updated 34 minutes ago

Overcast
Overcast
47 °F
Feels Like 45 °F
N
5
Wind Variable Wind from ENE
Gusts 9.0 mph

Today
High -- | Low -- °F
--% Chance of Precip.
Yesterday
High -- | Low -- °F
Precip. -- in
7:37 AM 5:37 PM
First Quarter, 54% visible
Pressure 29.78 in
Visibility 10.0 miles
Clouds Few 11000 ft
Mostly Cloudy 15000 ft
Windchill 45 °F
Dew Point 46 °F
Humidity 95%
Rainfall 0.08 in
Snow Depth Not available.
UV 0 out of 12
Pollen 1.60 out of 12
Air Quality Not available.
Flu Activity Not available.
METAR KSKA 311058Z AUTO 11003KT 10SM FEW110 BKN150 07/06 A2976 RMK AO2 SLP082 T00740063

More Conditions Fewer Conditions

Pressure 29.78 in
Visibility 10.0 miles
Clouds Few 11000 ft
Mostly Cloudy 15000 ft
Windchill 45 °F
Dew Point 46 °F
Humidity 95%
Rainfall 0.08 in
Snow Depth Not available.
UV 0 out of 12
Pollen 1.60 out of 12
Air Quality Not available.
Flu Activity Not available.
METAR KSKA 311058Z AUTO 11003KT 10SM FEW110 BKN150 07/06 A2976 RMK AO2 SLP082 T00740063

More Conditions Fewer Conditions

10-Day Weather Forecast

Almanac

Astronomy

Oct. 31, 2014 Rise Set
Actual Time
Civil Twilight
Nautical Twilight
Astronomical Twilight
Moon
Length of Visible Light
Length of Day
Tomorrow will be .
, % of the Moon is Illuminated

Today's Extremes

State Highs State Lows

Community

WunderPhotos

Upload Photos

1,766,581 photos uploaded!

WunderBlogs® & News

Nearby

Air Quality

  Air Quality AQ Index Pollutant
Not available.

Snow Depth

Station Depth Elevation

Earthquake Activity

City Distance Mag. Time & Date
Minimum magnitude displayed is 2.5.

Coastal Water Temperatures

Place Temperature

Nearby Weather Stations